Terminal Aerodrome Forecast
Issued by NWS

Home | Current Version | Previous Version | Text Only | Print | Product List | Glossary On
Versions: 1 2 3 4 5 6 7 8 9 10 11 12 13 14 15 16 17 18 19
000
FTUS43 KMPX 212300
TAFRWF
TAF
KRWF 212335Z 2200/2224 16015KT P6SM BKN035
     FM220700 20012KT P6SM SCT030 BKN150
     FM221000 30010KT P6SM SCT120
     FM221400 33013G19KT P6SM SCT250=

USA.gov is the U.S. government's official web portal to all federal, state and local government web resources and services.